createdAt,value
2023-02-13T00:02:11.591Z,102408.22
2023-02-13T00:05:14.172Z,102403.34
2023-02-13T00:08:16.524Z,102395.19
2023-02-13T00:11:20.554Z,102400.63
2023-02-13T00:14:22.671Z,102413.00
2023-02-13T00:17:26.528Z,102410.78
2023-02-13T00:20:28.752Z,102415.47
2023-02-13T00:23:33.168Z,102413.00
2023-02-13T00:26:35.348Z,102419.31
2023-02-13T00:29:38.880Z,102427.56
2023-02-13T00:32:41.019Z,102423.81
2023-02-13T00:35:43.472Z,102423.50
2023-02-13T00:38:46.808Z,102419.84
2023-02-13T00:41:49.300Z,102415.34
2023-02-13T00:44:51.550Z,102419.44
2023-02-13T00:47:54.124Z,102421.28
2023-02-13T00:50:56.622Z,102419.44
2023-02-13T00:53:59.379Z,102416.37
2023-02-13T00:57:03.201Z,102414.00
2023-02-13T01:00:06.576Z,102412.56
2023-02-13T01:03:09.603Z,102411.81
2023-02-13T01:06:12.745Z,102406.50
2023-02-13T01:09:15.045Z,102401.19
2023-02-13T01:12:17.548Z,102398.16
2023-02-13T01:15:20.490Z,102396.69
2023-02-13T01:18:24.213Z,102401.19
2023-02-13T01:21:26.666Z,102398.53
2023-02-13T01:24:31.130Z,102386.91
2023-02-13T01:27:33.996Z,102381.88
2023-02-13T01:30:36.990Z,102388.47
2023-02-13T01:33:39.447Z,102386.09
2023-02-13T01:36:43.040Z,102388.94
2023-02-13T01:39:45.285Z,102390.25
2023-02-13T01:42:48.103Z,102381.66
2023-02-13T01:45:55.771Z,102381.34
2023-02-13T01:49:05.345Z,102371.44
2023-02-13T01:52:10.125Z,102373.88
2023-02-13T01:55:14.248Z,102378.87
2023-02-13T01:58:22.944Z,102378.22
2023-02-13T02:01:27.108Z,102376.00
2023-02-13T02:04:33.887Z,102376.44
2023-02-13T02:07:39.595Z,102372.50
2023-02-13T02:10:42.953Z,102373.22
2023-02-13T02:13:46.320Z,102372.78
2023-02-13T02:16:48.947Z,102375.44
2023-02-13T02:20:35.014Z,102362.91
2023-02-13T02:23:49.848Z,102372.34
2023-02-13T02:27:25.817Z,102372.34
2023-02-13T02:30:31.382Z,102366.28
2023-02-13T02:33:59.635Z,102374.38
2023-02-13T02:37:13.465Z,102368.69
2023-02-13T02:40:21.759Z,102374.72
2023-02-13T02:43:43.095Z,102369.81
2023-02-13T02:47:13.574Z,102377.59
2023-02-13T02:50:41.743Z,102371.38
2023-02-13T02:53:53.029Z,102369.34
2023-02-13T02:57:01.189Z,102371.28
2023-02-13T03:00:42.322Z,102374.66
2023-02-13T03:04:05.484Z,102367.44
2023-02-13T03:07:11.606Z,102368.78
2023-02-13T03:10:40.798Z,102372.28
2023-02-13T03:13:47.820Z,102372.84
2023-02-13T03:17:09.368Z,102366.81
2023-02-13T03:20:30.231Z,102367.53
2023-02-13T03:23:44.644Z,102365.50
2023-02-13T03:27:14.234Z,102366.25
2023-02-13T03:30:32.965Z,102371.66
2023-02-13T03:34:06.572Z,102372.66
2023-02-13T03:37:30.241Z,102363.59
2023-02-13T03:41:19.296Z,102369.53
2023-02-13T03:44:42.352Z,102359.37
2023-02-13T03:47:45.358Z,102356.06
2023-02-13T03:50:48.276Z,102352.78
2023-02-13T03:53:56.032Z,102354.59
2023-02-13T03:57:17.404Z,102359.09
2023-02-13T04:00:21.546Z,102351.38
2023-02-13T04:03:35.797Z,102358.44
2023-02-13T04:07:12.138Z,102357.41
2023-02-13T04:10:17.462Z,102364.22
2023-02-13T04:13:38.868Z,102354.94
2023-02-13T04:16:45.682Z,102369.56
2023-02-13T04:19:48.025Z,102360.53
2023-02-13T04:22:50.538Z,102356.75
2023-02-13T04:25:55.598Z,102357.78
2023-02-13T04:28:58.074Z,102359.22
2023-02-13T04:32:01.658Z,102356.38
2023-02-13T04:35:04.456Z,102353.56
2023-02-13T04:38:06.640Z,102360.06
2023-02-13T04:41:09.089Z,102359.31
2023-02-13T04:44:11.302Z,102356.91
2023-02-13T04:47:13.739Z,102356.69
2023-02-13T04:50:15.988Z,102361.16
2023-02-13T04:53:18.443Z,102356.06
2023-02-13T04:56:20.569Z,102353.72
2023-02-13T04:59:22.972Z,102351.25
2023-02-13T05:02:25.386Z,102351.25
2023-02-13T05:05:28.498Z,102346.13
2023-02-13T05:08:30.697Z,102348.13
2023-02-13T05:11:33.167Z,102351.06
2023-02-13T05:14:35.349Z,102344.66
2023-02-13T05:17:37.847Z,102341.25
2023-02-13T05:20:40.065Z,102341.47
2023-02-13T05:23:43.909Z,102339.94
2023-02-13T05:26:46.061Z,102331.47
2023-02-13T05:29:48.510Z,102326.88
2023-02-13T05:32:54.956Z,102330.16
2023-02-13T05:35:57.404Z,102327.81
2023-02-13T05:39:00.736Z,102329.62
2023-02-13T05:42:04.855Z,102332.78
2023-02-13T05:45:07.901Z,102341.84
2023-02-13T05:48:10.414Z,102344.25
2023-02-13T05:51:12.663Z,102337.53
2023-02-13T05:54:15.350Z,102339.44
2023-02-13T05:57:17.564Z,102348.31
2023-02-13T06:00:20.911Z,102348.13
2023-02-13T06:03:25.213Z,102346.78
2023-02-13T06:06:28.210Z,102344.66
2023-02-13T06:09:30.650Z,102349.59
2023-02-13T06:12:33.069Z,102353.06
2023-02-13T06:15:35.512Z,102362.34
2023-02-13T06:18:39.092Z,102375.87
2023-02-13T06:21:41.963Z,102371.75
2023-02-13T06:24:44.202Z,102377.16
2023-02-13T06:27:46.829Z,102373.47
2023-02-13T06:30:49.278Z,102370.94
2023-02-13T06:33:52.180Z,102376.47
2023-02-13T06:36:54.346Z,102379.13
2023-02-13T06:39:56.821Z,102386.72
2023-02-13T06:42:59.041Z,102383.91
2023-02-13T06:46:06.162Z,102382.06
2023-02-13T06:49:09.630Z,102383.78
2023-02-13T06:52:12.336Z,102380.13
2023-02-13T06:55:15.266Z,102378.59
2023-02-13T06:58:18.451Z,102387.66
2023-02-13T07:01:20.760Z,102394.53
2023-02-13T07:04:23.536Z,102382.22
2023-02-13T07:07:25.904Z,102383.78
2023-02-13T07:10:28.517Z,102386.37
2023-02-13T07:13:30.697Z,102385.00
2023-02-13T07:16:34.707Z,102387.44
2023-02-13T07:19:37.037Z,102391.03
2023-02-13T07:22:45.597Z,102391.78
2023-02-13T07:25:47.936Z,102394.41
2023-02-13T07:28:56.971Z,102398.16
2023-02-13T07:32:09.199Z,102395.16
2023-02-13T07:35:11.737Z,102391.53
2023-02-13T07:38:14.110Z,102389.34
2023-02-13T07:41:16.542Z,102391.75
2023-02-13T07:44:18.661Z,102393.03
2023-02-13T07:47:21.140Z,102392.13
2023-02-13T07:50:24.137Z,102404.13
2023-02-13T07:53:26.752Z,102406.34
2023-02-13T07:56:28.910Z,102403.97
2023-02-13T07:59:31.404Z,102403.50
2023-02-13T08:02:33.660Z,102406.81
2023-02-13T08:05:41.375Z,102405.31
2023-02-13T08:08:43.617Z,102411.81
2023-02-13T08:12:09.512Z,102412.72
2023-02-13T08:15:13.294Z,102407.03
2023-02-13T08:18:17.022Z,102406.75
2023-02-13T08:21:20.845Z,102396.06
2023-02-13T08:24:25.704Z,102403.56
2023-02-13T08:27:30.240Z,102394.62
2023-02-13T08:30:33.535Z,102401.09
2023-02-13T08:33:35.850Z,102398.91
2023-02-13T08:36:38.676Z,102399.06
2023-02-13T08:39:41.112Z,102391.53
2023-02-13T08:42:43.679Z,102390.25
2023-02-13T08:45:46.038Z,102386.84
2023-02-13T08:48:48.789Z,102381.03
2023-02-13T08:51:51.036Z,102386.44
2023-02-13T08:54:53.545Z,102383.69
2023-02-13T08:57:55.736Z,102385.66
2023-02-13T09:00:58.806Z,102387.78
2023-02-13T09:04:01.059Z,102390.28
2023-02-13T09:07:03.702Z,102387.16
2023-02-13T09:10:06.614Z,102385.00
2023-02-13T09:13:09.649Z,102392.44
2023-02-13T09:16:12.112Z,102383.19
2023-02-13T09:19:14.778Z,102391.88
2023-02-13T09:22:17.319Z,102387.25
2023-02-13T09:25:21.645Z,102382.50
2023-02-13T09:28:23.902Z,102388.16
2023-02-13T09:31:29.173Z,102394.34
2023-02-13T09:34:31.905Z,102389.66
2023-02-13T09:37:34.428Z,102388.31
2023-02-13T09:40:51.478Z,102388.47
2023-02-13T09:43:59.620Z,102391.22
2023-02-13T09:47:14.921Z,102379.88
2023-02-13T09:50:24.498Z,102384.00
2023-02-13T09:53:29.649Z,102381.25
2023-02-13T09:56:52.684Z,102378.09
2023-02-13T10:00:13.170Z,102377.56
2023-02-13T10:03:28.705Z,102378.50
2023-02-13T10:06:49.974Z,102371.59
2023-02-13T10:09:59.040Z,102365.34
2023-02-13T10:13:23.625Z,102369.37
2023-02-13T10:16:35.888Z,102358.16
2023-02-13T10:20:01.596Z,102355.19
2023-02-13T10:23:27.043Z,102351.31
2023-02-13T10:26:43.656Z,102348.00
2023-02-13T10:30:12.759Z,102347.00
2023-02-13T10:33:36.728Z,102351.09
2023-02-13T10:36:44.500Z,102351.00
2023-02-13T10:39:53.249Z,102351.84
2023-02-13T10:43:08.200Z,102347.12
2023-02-13T10:46:22.346Z,102345.94
2023-02-13T10:49:37.970Z,102339.03
2023-02-13T10:52:50.812Z,102333.88
2023-02-13T10:56:01.976Z,102324.53
2023-02-13T10:59:16.263Z,102321.03
2023-02-13T11:02:23.318Z,102306.31
2023-02-13T11:05:52.455Z,102305.13
2023-02-13T11:08:57.023Z,102303.12
2023-02-13T11:11:59.669Z,102296.53
2023-02-13T11:15:06.603Z,102289.88
2023-02-13T11:18:19.674Z,102284.81
2023-02-13T11:21:37.232Z,102285.59
2023-02-13T11:24:55.732Z,102279.47
2023-02-13T11:28:17.911Z,102282.69
2023-02-13T11:31:34.986Z,102271.50
2023-02-13T11:34:37.974Z,102269.66
2023-02-13T11:37:40.599Z,102262.34
2023-02-13T11:40:47.365Z,102254.25
2023-02-13T11:44:01.657Z,102259.09
2023-02-13T11:47:04.386Z,102249.03
2023-02-13T11:50:46.225Z,102243.91
2023-02-13T11:53:49.171Z,102242.34
2023-02-13T11:57:04.867Z,102231.56
2023-02-13T12:00:29.661Z,102234.00
2023-02-13T12:03:33.380Z,102238.59
2023-02-13T12:06:39.851Z,102235.25
2023-02-13T12:09:45.456Z,102238.84
2023-02-13T12:12:55.770Z,102236.91
2023-02-13T12:16:03.616Z,102232.47
2023-02-13T12:19:12.206Z,102236.25
2023-02-13T12:22:28.616Z,102231.59
2023-02-13T12:25:48.479Z,102231.91
2023-02-13T12:29:00.641Z,102222.12
2023-02-13T12:32:21.384Z,102214.66
2023-02-13T12:35:48.971Z,102212.09
2023-02-13T12:39:01.780Z,102204.34
2023-02-13T12:42:19.659Z,102196.72
2023-02-13T12:45:40.804Z,102192.72
2023-02-13T12:49:03.556Z,102184.56
2023-02-13T12:52:09.044Z,102183.81
2023-02-13T12:55:26.890Z,102181.69
2023-02-13T12:58:57.573Z,102170.13
2023-02-13T13:02:18.577Z,102165.53
2023-02-13T13:05:31.384Z,102158.34
2023-02-13T13:09:00.044Z,102155.44
2023-02-13T13:12:11.167Z,102152.56
2023-02-13T13:15:16.478Z,102154.66
2023-02-13T13:18:37.077Z,102154.69
2023-02-13T13:22:00.129Z,102160.53
2023-02-13T13:25:43.076Z,102158.22
2023-02-13T13:28:49.502Z,102153.41
2023-02-13T13:31:59.860Z,102144.47
2023-02-13T13:35:03.594Z,102159.16
2023-02-13T13:38:17.386Z,102151.19
2023-02-13T13:41:39.872Z,102151.97
2023-02-13T13:44:48.157Z,102155.94
2023-02-13T13:48:09.614Z,102154.75
2023-02-13T13:51:17.035Z,102153.03
2023-02-13T13:54:24.394Z,102153.25
2023-02-13T13:57:46.775Z,102149.47
2023-02-13T14:01:29.728Z,102137.53
2023-02-13T14:04:33.110Z,102140.62
2023-02-13T14:07:41.528Z,102134.47
2023-02-13T14:10:50.400Z,102136.94
2023-02-13T14:13:52.785Z,102142.59
2023-02-13T14:16:58.143Z,102141.34
2023-02-13T14:20:00.990Z,102141.13
2023-02-13T14:23:26.528Z,102151.66
2023-02-13T14:26:33.405Z,102154.06
2023-02-13T14:29:36.357Z,102144.41
2023-02-13T14:32:41.224Z,102156.19
2023-02-13T14:35:44.114Z,102158.84
2023-02-13T14:38:56.317Z,102159.13
2023-02-13T14:42:01.454Z,102163.00
2023-02-13T14:45:11.115Z,102160.75
2023-02-13T14:48:15.361Z,102163.19
2023-02-13T14:51:28.746Z,102154.69
2023-02-13T14:54:49.355Z,102166.50
2023-02-13T14:58:10.829Z,102164.72
2023-02-13T15:01:31.871Z,102165.00
2023-02-13T15:04:46.826Z,102162.41
2023-02-13T15:08:16.264Z,102161.81
2023-02-13T15:11:37.736Z,102162.91
2023-02-13T15:14:40.738Z,102156.06
2023-02-13T15:17:43.116Z,102155.19
2023-02-13T15:20:47.108Z,102155.50
2023-02-13T15:23:52.611Z,102158.13
2023-02-13T15:27:03.994Z,102163.34
2023-02-13T15:30:15.064Z,102159.41
2023-02-13T15:33:19.236Z,102164.12
2023-02-13T15:36:25.493Z,102162.56
2023-02-13T15:39:31.864Z,102170.72
2023-02-13T15:42:34.802Z,102162.72
2023-02-13T15:45:37.233Z,102157.44
2023-02-13T15:48:39.408Z,102150.66
2023-02-13T15:51:42.278Z,102153.00
2023-02-13T15:54:53.053Z,102146.47
2023-02-13T15:57:57.499Z,102153.97
2023-02-13T16:01:09.336Z,102153.16
2023-02-13T16:04:15.320Z,102158.69
2023-02-13T16:07:17.641Z,102156.72
2023-02-13T16:10:29.556Z,102160.72
2023-02-13T16:13:31.849Z,102155.91
2023-02-13T16:16:49.477Z,102160.56
2023-02-13T16:19:54.093Z,102169.94
2023-02-13T16:22:59.151Z,102171.44
2023-02-13T16:26:06.150Z,102164.88
2023-02-13T16:29:11.460Z,102170.25
2023-02-13T16:32:22.186Z,102165.03
2023-02-13T16:35:29.056Z,102156.34
2023-02-13T16:38:43.502Z,102163.66
2023-02-13T16:41:45.985Z,102148.47
2023-02-13T16:44:48.238Z,102152.34
2023-02-13T16:48:02.451Z,102158.09
2023-02-13T16:51:05.066Z,102149.84
2023-02-13T16:54:10.564Z,102153.34
2023-02-13T16:57:17.493Z,102146.22
2023-02-13T17:00:24.430Z,102148.69
2023-02-13T17:03:26.648Z,102145.56
2023-02-13T17:06:29.053Z,102154.56
2023-02-13T17:09:31.297Z,102150.94
2023-02-13T17:12:38.629Z,102133.41
2023-02-13T17:15:45.881Z,102121.97
2023-02-13T17:18:48.354Z,102126.50
2023-02-13T17:21:55.653Z,102127.34
2023-02-13T17:24:59.226Z,102122.06
2023-02-13T17:28:24.134Z,102120.16
2023-02-13T17:31:26.625Z,102110.94
2023-02-13T17:34:28.897Z,102123.94
2023-02-13T17:37:32.816Z,102116.97
2023-02-13T17:40:35.324Z,102120.59
2023-02-13T17:43:37.927Z,102113.47
2023-02-13T17:46:40.553Z,102115.00
2023-02-13T17:49:43.098Z,102107.53
2023-02-13T17:52:47.568Z,102114.87
2023-02-13T17:55:50.805Z,102108.59
2023-02-13T17:58:52.944Z,102093.31
2023-02-13T18:01:55.448Z,102091.44
2023-02-13T18:04:57.889Z,102086.28
2023-02-13T18:08:02.616Z,102090.97
2023-02-13T18:11:10.826Z,102096.06
2023-02-13T18:14:12.977Z,102095.38
2023-02-13T18:17:16.012Z,102087.22
2023-02-13T18:20:23.585Z,102074.50
2023-02-13T18:23:26.148Z,102082.41
2023-02-13T18:26:28.312Z,102074.34
2023-02-13T18:29:30.813Z,102072.75
2023-02-13T18:32:32.938Z,102074.72
2023-02-13T18:35:37.292Z,102068.19
2023-02-13T18:38:39.394Z,102059.56
2023-02-13T18:41:42.142Z,102062.03
2023-02-13T18:44:44.280Z,102068.41
2023-02-13T18:47:46.716Z,102060.97
2023-02-13T18:50:49.267Z,102051.28
2023-02-13T18:53:51.969Z,102054.91
2023-02-13T18:56:54.265Z,102038.31
2023-02-13T18:59:56.749Z,102041.00
2023-02-13T19:02:59.663Z,102051.63
2023-02-13T19:06:08.305Z,102061.41
2023-02-13T19:09:10.834Z,102049.19
2023-02-13T19:12:13.370Z,102046.84
2023-02-13T19:15:16.463Z,102034.94
2023-02-13T19:18:18.884Z,102033.44
2023-02-13T19:21:23.324Z,102030.97
2023-02-13T19:24:25.750Z,102046.25
2023-02-13T19:27:27.918Z,102046.16
2023-02-13T19:30:30.353Z,102049.28
2023-02-13T19:33:32.790Z,102053.16
2023-02-13T19:36:35.236Z,102056.28
2023-02-13T19:39:37.497Z,102050.34
2023-02-13T19:42:40.336Z,102040.88
2023-02-13T19:45:43.634Z,102044.50
2023-02-13T19:48:49.254Z,102046.25
2023-02-13T19:51:51.489Z,102039.97
2023-02-13T19:54:54.213Z,102051.38
2023-02-13T19:57:56.362Z,102045.31
2023-02-13T20:01:14.843Z,102036.56
2023-02-13T20:04:17.358Z,102029.69
2023-02-13T20:07:19.560Z,102028.41
2023-02-13T20:10:22.006Z,102034.84
2023-02-13T20:13:24.782Z,102035.53
2023-02-13T20:16:27.909Z,102030.72
2023-02-13T20:19:30.704Z,102018.94
2023-02-13T20:22:33.141Z,102015.94
2023-02-13T20:25:35.553Z,102018.38
2023-02-13T20:28:38.244Z,102014.62
2023-02-13T20:31:41.507Z,102024.22
2023-02-13T20:34:58.707Z,102010.00
2023-02-13T20:38:01.983Z,102010.44
2023-02-13T20:41:12.262Z,102010.44
2023-02-13T20:44:16.127Z,102033.53
2023-02-13T20:47:18.745Z,102025.03
2023-02-13T20:50:21.171Z,102016.84
2023-02-13T20:53:23.558Z,102015.81
2023-02-13T20:56:28.100Z,102016.63
2023-02-13T20:59:30.658Z,102011.12
2023-02-13T21:02:32.854Z,102012.53
2023-02-13T21:05:35.370Z,102007.25
2023-02-13T21:08:38.100Z,102012.06
2023-02-13T21:11:43.077Z,102008.50
2023-02-13T21:14:45.251Z,102015.44
2023-02-13T21:17:47.704Z,102027.81
2023-02-13T21:20:49.904Z,102018.38
2023-02-13T21:23:54.221Z,102014.38
2023-02-13T21:26:56.400Z,102014.75
2023-02-13T21:29:58.911Z,102024.66
2023-02-13T21:33:01.090Z,102022.69
2023-02-13T21:36:06.685Z,102010.19
2023-02-13T21:39:10.488Z,102020.94
2023-02-13T21:42:12.969Z,102023.97
2023-02-13T21:45:15.289Z,102037.16
2023-02-13T21:48:17.706Z,102036.91
2023-02-13T21:51:20.539Z,102033.06
2023-02-13T21:54:22.993Z,102035.28
2023-02-13T21:57:25.175Z,102044.03
2023-02-13T22:00:27.601Z,102040.53
2023-02-13T22:03:30.327Z,102038.66
2023-02-13T22:06:35.417Z,102045.69
2023-02-13T22:09:38.056Z,102035.88
2023-02-13T22:12:40.221Z,102040.69
2023-02-13T22:15:42.681Z,102049.88
2023-02-13T22:18:45.523Z,102040.31
2023-02-13T22:21:48.038Z,102038.91
2023-02-13T22:24:50.261Z,102038.31
2023-02-13T22:27:52.659Z,102030.50
2023-02-13T22:30:55.164Z,102035.03
2023-02-13T22:34:03.813Z,102041.84
2023-02-13T22:37:08.396Z,102031.69
2023-02-13T22:40:11.246Z,102028.28
2023-02-13T22:43:13.370Z,102030.25
2023-02-13T22:46:22.749Z,102031.06
2023-02-13T22:49:25.005Z,102023.66
2023-02-13T22:52:27.406Z,102029.47
2023-02-13T22:55:29.532Z,102031.03
2023-02-13T22:58:32.137Z,102018.47
2023-02-13T23:01:34.363Z,102018.81
2023-02-13T23:04:36.828Z,102016.94
2023-02-13T23:07:39.118Z,102021.84
2023-02-13T23:11:04.879Z,102006.69
2023-02-13T23:14:07.247Z,102018.72
2023-02-13T23:17:28.403Z,102018.47
2023-02-13T23:20:30.576Z,102021.97
2023-02-13T23:23:36.015Z,102026.91
2023-02-13T23:26:38.583Z,102023.09
2023-02-13T23:29:41.076Z,102020.53
2023-02-13T23:32:43.243Z,102015.94
2023-02-13T23:35:45.633Z,102003.25
2023-02-13T23:38:49.332Z,101992.06
2023-02-13T23:41:51.791Z,101986.47
2023-02-13T23:44:54.649Z,101984.97
2023-02-13T23:47:57.148Z,101983.50
2023-02-13T23:51:00.143Z,101975.69
2023-02-13T23:54:03.139Z,101974.28
2023-02-13T23:57:05.515Z,101978.75
